Mamolino 2072 — 9HB4203 — position and weather

sailwx.info

Track history (hours):
 
Tides and Currents Weather Stations Pressure Air Temp Water Temp Dewpoint Dewpoint Depression Visibility Wind Speed Wind Dir Waves Ship Positions

Mamolino 2072

Last reported at 2017-Nov-15 14:33 UTC. Time now 2017-Nov-19 01:13 UTC.
Position S 05°08' E 011°31'.

Length 20 m; draft 1 m.

Type: Passenger vessel. MMSI: 229990000.

Date/timePositionNaut miles runAvg speedWind from/ knotsBaromVisibWave heightAir tempDewpointWater temp
2017-Nov-15 14:33S 05°08' E 011°31'218.8
2017-Nov-15 14:27S 05°09' E 011°29'918.1
2017-Nov-15 13:56S 05°16' E 011°24'1 2.0
2017-Nov-15 13:29S 05°17' E 011°24'0 0.0
2017-Nov-15 13:00S 05°17' E 011°24'0 0.1
2017-Nov-15 12:30S 05°17' E 011°24'0 0.0
2017-Nov-15 12:00S 05°17' E 011°24'0 0.0
2017-Nov-15 11:30S 05°17' E 011°24'0 0.0
2017-Nov-15 11:00S 05°17' E 011°24'0 0.0
2017-Nov-15 10:30S 05°17' E 011°24'2 4.3
2017-Nov-15 10:00S 05°19' E 011°23'4 8.0
2017-Nov-15 09:30S 05°15' E 011°24'1018.4
2017-Nov-15 08:58S 05°08' E 011°31'9 0.4
2017-Nov-14 11:29S 05°16' E 011°30'611.6
2017-Nov-14 10:56S 05°17' E 011°23'  
2017-Nov-10 13:28S 05°16' E 011°34'12 0.2
2017-Nov-08 14:46S 05°04' E 011°34'620.3
2017-Nov-08 14:28S 05°09' E 011°30'919.3
2017-Nov-08 14:00S 05°16' E 011°24'2 4.1
2017-Nov-08 13:30S 05°18' E 011°23'1 2.1
2017-Nov-08 13:00S 05°19' E 011°23'0 0.0
2017-Nov-08 12:30S 05°19' E 011°23'0 0.0
2017-Nov-08 12:00S 05°19' E 011°23'0 0.0
2017-Nov-08 11:30S 05°19' E 011°23'0 0.0
2017-Nov-08 11:00S 05°19' E 011°23'0 0.0
2017-Nov-08 10:30S 05°19' E 011°23'0 0.1
2017-Nov-08 10:00S 05°19' E 011°23'2 3.1
2017-Nov-08 09:30S 05°17' E 011°23'510.0
2017-Nov-08 09:00S 05°13' E 011°26'1019.5
2017-Nov-08 08:30S 05°06' E 011°32'1 0.0
2017-Nov-07 13:28S 05°07' E 011°32'920.1
2017-Nov-07 13:00S 05°14' E 011°26'5 9.9
2017-Nov-07 12:30S 05°18' E 011°23'0 0.3
2017-Nov-07 12:00S 05°18' E 011°23'0 0.3
2017-Nov-07 11:30S 05°18' E 011°23'1 1.9
2017-Nov-07 11:00S 05°19' E 011°23'0 0.1
2017-Nov-07 10:30S 05°19' E 011°23'0 0.7
2017-Nov-07 10:00S 05°19' E 011°23'2 4.1
2017-Nov-07 09:30S 05°16' E 011°23'1020.2
2017-Nov-07 09:00S 05°09' E 011°30'  
Track history (hours):
 
Tides and Currents Weather Stations Pressure Air Temp Water Temp Dewpoint Dewpoint Depression Visibility Wind Speed Wind Dir Waves Ship Positions

Mamolino 2072

Last reported at 2017-Nov-15 14:33 UTC. Time now 2017-Nov-19 01:13 UTC.
Position S 05°08' E 011°31'.

Length 20 m; draft 1 m.

Type: Passenger vessel. MMSI: 229990000.

Date/timePositionNaut miles runAvg speedWind from/ knotsBaromVisibWave heightAir tempDewpointWater temp
2017-Nov-15 14:33S 05°08' E 011°31'218.8
2017-Nov-15 14:27S 05°09' E 011°29'918.1
2017-Nov-15 13:56S 05°16' E 011°24'1 2.0
2017-Nov-15 13:29S 05°17' E 011°24'0 0.0
2017-Nov-15 13:00S 05°17' E 011°24'0 0.1
2017-Nov-15 12:30S 05°17' E 011°24'0 0.0
2017-Nov-15 12:00S 05°17' E 011°24'0 0.0
2017-Nov-15 11:30S 05°17' E 011°24'0 0.0
2017-Nov-15 11:00S 05°17' E 011°24'0 0.0
2017-Nov-15 10:30S 05°17' E 011°24'2 4.3
2017-Nov-15 10:00S 05°19' E 011°23'4 8.0
2017-Nov-15 09:30S 05°15' E 011°24'1018.4
2017-Nov-15 08:58S 05°08' E 011°31'9 0.4
2017-Nov-14 11:29S 05°16' E 011°30'611.6
2017-Nov-14 10:56S 05°17' E 011°23'  
2017-Nov-10 13:28S 05°16' E 011°34'12 0.2
2017-Nov-08 14:46S 05°04' E 011°34'620.3
2017-Nov-08 14:28S 05°09' E 011°30'919.3
2017-Nov-08 14:00S 05°16' E 011°24'2 4.1
2017-Nov-08 13:30S 05°18' E 011°23'1 2.1
2017-Nov-08 13:00S 05°19' E 011°23'0 0.0
2017-Nov-08 12:30S 05°19' E 011°23'0 0.0
2017-Nov-08 12:00S 05°19' E 011°23'0 0.0
2017-Nov-08 11:30S 05°19' E 011°23'0 0.0
2017-Nov-08 11:00S 05°19' E 011°23'0 0.0
2017-Nov-08 10:30S 05°19' E 011°23'0 0.1
2017-Nov-08 10:00S 05°19' E 011°23'2 3.1
2017-Nov-08 09:30S 05°17' E 011°23'510.0
2017-Nov-08 09:00S 05°13' E 011°26'1019.5
2017-Nov-08 08:30S 05°06' E 011°32'1 0.0
2017-Nov-07 13:28S 05°07' E 011°32'920.1
2017-Nov-07 13:00S 05°14' E 011°26'5 9.9
2017-Nov-07 12:30S 05°18' E 011°23'0 0.3
2017-Nov-07 12:00S 05°18' E 011°23'0 0.3
2017-Nov-07 11:30S 05°18' E 011°23'1 1.9
2017-Nov-07 11:00S 05°19' E 011°23'0 0.1
2017-Nov-07 10:30S 05°19' E 011°23'0 0.7
2017-Nov-07 10:00S 05°19' E 011°23'2 4.1
2017-Nov-07 09:30S 05°16' E 011°23'1020.2
2017-Nov-07 09:00S 05°09' E 011°30'  

Dump ship's entire track history